createdAt,value
2019-05-13T13:57:02.423Z,10.20
2019-05-13T13:59:36.059Z,16.40
2019-05-13T14:02:05.364Z,16.20
2019-05-13T14:04:31.424Z,16.00
2019-05-13T14:09:30.155Z,16.20
2019-05-13T14:11:58.588Z,16.20
2019-05-13T14:14:27.047Z,16.40
2019-05-13T14:16:55.470Z,16.50
2019-05-13T14:19:23.920Z,16.30
2019-05-13T15:26:35.709Z,16.30
2019-05-13T15:29:05.066Z,16.10
2019-05-13T15:31:33.686Z,16.20
2019-05-13T15:34:02.703Z,16.00
2019-05-13T15:36:31.599Z,15.90
2019-05-13T15:39:01.489Z,15.90
2019-05-13T15:41:30.181Z,15.80
2019-05-13T15:43:58.904Z,15.80
2019-05-13T15:46:27.333Z,15.90
2019-05-13T15:48:55.766Z,15.80
2019-05-13T15:51:24.179Z,15.70
2019-05-13T15:53:52.626Z,15.90
2019-05-13T15:56:22.366Z,15.80
2019-05-13T15:58:52.939Z,15.60
2019-05-13T16:01:22.877Z,15.60
2019-05-13T16:03:52.471Z,15.70
2019-05-13T16:06:21.299Z,15.60
2019-05-13T16:08:51.864Z,15.50
2019-05-13T16:11:21.927Z,15.50
2019-05-13T16:13:51.789Z,15.50
2019-05-13T16:16:21.769Z,15.40
2019-05-13T16:18:51.593Z,15.50
2019-05-13T16:21:20.188Z,15.40
2019-05-13T16:23:48.606Z,15.30
2019-05-13T16:26:17.048Z,15.30
2019-05-13T16:28:45.483Z,15.30
2019-05-13T16:31:13.909Z,15.20
2019-05-13T16:33:42.357Z,15.10
2019-05-13T16:36:12.591Z,15.10
2019-05-13T16:38:41.686Z,15.10
2019-05-13T16:41:12.507Z,15.20
2019-05-13T16:43:42.623Z,15.10
2019-05-13T16:46:12.165Z,15.00
2019-05-13T16:48:41.674Z,15.00
2019-05-13T16:51:12.576Z,14.90
2019-05-13T16:53:42.152Z,15.10
2019-05-13T16:56:25.284Z,15.10
2019-05-13T16:58:41.864Z,15.10
2019-05-13T17:01:11.884Z,15.10
2019-05-13T17:03:41.449Z,15.00
2019-05-13T17:06:12.484Z,15.00
2019-05-13T17:08:42.437Z,15.00
2019-05-13T17:11:11.755Z,15.00
2019-05-13T17:13:42.239Z,15.00
2019-05-13T17:16:10.925Z,14.90
2019-05-13T17:18:41.508Z,14.90
2019-05-13T17:21:09.545Z,14.80
2019-05-13T17:23:37.960Z,14.70
2019-05-13T17:26:06.399Z,14.70
2019-05-13T17:28:34.851Z,14.60
2019-05-13T17:31:03.334Z,14.40
2019-05-13T17:33:32.029Z,14.40
2019-05-13T17:36:01.940Z,14.30
2019-05-13T17:38:32.411Z,14.20
2019-05-13T17:41:02.173Z,14.10
2019-05-13T17:43:32.000Z,14.10
2019-05-13T17:46:01.578Z,14.00
2019-05-13T17:48:32.779Z,13.90
2019-05-13T17:51:01.301Z,13.80
2019-05-13T17:53:32.244Z,13.70
2019-05-13T18:38:04.815Z,13.70
2019-05-13T18:40:33.222Z,12.80
2019-05-13T18:43:02.028Z,12.70
2019-05-13T18:45:30.551Z,12.60
2019-05-13T18:47:58.996Z,12.50
2019-05-13T18:50:27.422Z,12.40
2019-05-13T18:52:55.870Z,12.30
2019-05-13T18:55:24.284Z,12.30
2019-05-13T18:57:52.710Z,12.20
2019-05-13T19:00:21.755Z,12.20
2019-05-13T23:19:41.334Z,12.10
2019-05-13T23:22:09.120Z,8.40
2019-05-13T23:28:44.821Z,8.30
2019-05-13T23:31:13.235Z,8.40
2019-05-13T23:33:41.773Z,8.20
